sensor_id;sensor_type;location;lat;lon;timestamp;P1;P2;P0
47709;PMS7003;33473;51.640;5.892;2023-06-14T00:08:10;6.37;9.06;6.99
47709;PMS7003;33473;51.640;5.892;2023-06-14T00:21:31;5.17;7.97;6.0
47709;PMS7003;33473;51.640;5.892;2023-06-14T00:34:52;4.57;7.31;5.68
47709;PMS7003;33473;51.640;5.892;2023-06-14T00:48:12;5.53;8.08;5.9
47709;PMS7003;33473;51.640;5.892;2023-06-14T01:01:33;6.49;7.53;5.35
47709;PMS7003;33473;51.640;5.892;2023-06-14T01:14:54;3.97;6.77;5.13
47709;PMS7003;33473;51.640;5.892;2023-06-14T01:28:16;3.73;6.66;4.8
47709;PMS7003;33473;51.640;5.892;2023-06-14T01:41:37;3.48;6.44;4.7
47709;PMS7003;33473;51.640;5.892;2023-06-14T01:54:57;3.97;6.44;4.8
47709;PMS7003;33473;51.640;5.892;2023-06-14T02:08:18;4.45;6.44;4.7
47709;PMS7003;33473;51.640;5.892;2023-06-14T02:21:39;3.97;6.66;5.02
47709;PMS7003;33473;51.640;5.892;2023-06-14T02:35:00;3.97;6.22;4.26
47709;PMS7003;33473;51.640;5.892;2023-06-14T02:48:21;4.09;6.99;4.8
47709;PMS7003;33473;51.640;5.892;2023-06-14T03:01:43;3.6;6.44;4.8
47709;PMS7003;33473;51.640;5.892;2023-06-14T03:15:04;3.73;6.55;4.8
47709;PMS7003;33473;51.640;5.892;2023-06-14T03:28:24;5.53;6.66;4.7
47709;PMS7003;33473;51.640;5.892;2023-06-14T03:41:45;3.12;6.0;4.26
47709;PMS7003;33473;51.640;5.892;2023-06-14T03:55:06;3.6;6.11;4.26
47709;PMS7003;33473;51.640;5.892;2023-06-14T04:08:26;3.12;6.11;4.48
47709;PMS7003;33473;51.640;5.892;2023-06-14T04:21:45;3.36;5.9;4.37
47709;PMS7003;33473;51.640;5.892;2023-06-14T04:35:07;4.21;6.44;4.37
47709;PMS7003;33473;51.640;5.892;2023-06-14T04:48:26;3.73;5.79;4.04
47709;PMS7003;33473;51.640;5.892;2023-06-14T05:01:46;3.36;5.79;4.04
47709;PMS7003;33473;51.640;5.892;2023-06-14T05:15:07;4.69;6.0;4.15
47709;PMS7003;33473;51.640;5.892;2023-06-14T05:28:28;2.16;5.24;4.04
47709;PMS7003;33473;51.640;5.892;2023-06-14T05:41:49;2.52;4.91;3.93
47709;PMS7003;33473;51.640;5.892;2023-06-14T05:55:11;2.4;5.13;3.93
47709;PMS7003;33473;51.640;5.892;2023-06-14T06:08:30;2.88;5.13;3.82
47709;PMS7003;33473;51.640;5.892;2023-06-14T06:21:52;3.97;5.46;4.04
47709;PMS7003;33473;51.640;5.892;2023-06-14T06:35:11;2.28;5.35;3.5
47709;PMS7003;33473;51.640;5.892;2023-06-14T06:48:32;2.04;4.91;3.71
47709;PMS7003;33473;51.640;5.892;2023-06-14T07:01:52;2.28;4.91;3.82
47709;PMS7003;33473;51.640;5.892;2023-06-14T07:15:12;1.56;4.7;3.61
47709;PMS7003;33473;51.640;5.892;2023-06-14T07:28:32;1.56;4.59;3.61
47709;PMS7003;33473;51.640;5.892;2023-06-14T07:41:53;1.2;3.82;3.06
47709;PMS7003;33473;51.640;5.892;2023-06-14T07:55:12;1.08;3.39;2.62
47709;PMS7003;33473;51.640;5.892;2023-06-14T08:08:34;0.01;2.52;2.19
47709;PMS7003;33473;51.640;5.892;2023-06-14T08:21:55;0.01;1.64;1.21
47709;PMS7003;33473;51.640;5.892;2023-06-14T08:35:16;0.01;1.97;1.54
47709;PMS7003;33473;51.640;5.892;2023-06-14T08:48:37;0.01;2.3;1.86
47709;PMS7003;33473;51.640;5.892;2023-06-14T09:01:59;0.01;2.08;1.75
47709;PMS7003;33473;51.640;5.892;2023-06-14T09:15:20;0.01;2.41;1.86
47709;PMS7003;33473;51.640;5.892;2023-06-14T09:28:39;0.01;2.19;1.64
47709;PMS7003;33473;51.640;5.892;2023-06-14T09:41:59;0.01;2.08;1.75
47709;PMS7003;33473;51.640;5.892;2023-06-14T09:55:19;0.01;2.3;2.08
